Time;durP1;ratioP1;P1;durP2;ratioP2;P2;SDS_P1;SDS_P2;PMS_P1;PMS_P2;Temp;Humidity;BMP_temperature;BMP_pressure;BME280_temperature;BME280_humidity;BME280_pressure;Samples;Min_cycle;Max_cycle;Signal;HPM_P1;HPM_P2
2021/01/06 00:02:19;;;;;;;12.25;10.43;;;;;;;;;;4998400;28;20104;-66
2021/01/06 00:04:44;;;;;;;12.35;9.70;;;;;;;;;;5000675;28;20084;-66
2021/01/06 00:07:09;;;;;;;11.68;9.27;;;;;;;;;;5001105;28;20034;-66
2021/01/06 00:09:35;;;;;;;11.48;9.52;;;;;;;;;;4998241;28;20054;-66
2021/01/06 00:12:00;;;;;;;12.23;9.57;;;;;;;;;;5000017;28;20030;-66
2021/01/06 00:14:26;;;;;;;10.43;8.90;;;;;;;;;;4999730;28;20044;-66
2021/01/06 00:16:53;;;;;;;10.10;8.27;;;;;;;;;;5000442;28;20026;-66
2021/01/06 00:19:19;;;;;;;12.43;9.82;;;;;;;;;;4998624;28;20030;-66
2021/01/06 00:21:45;;;;;;;11.27;9.30;;;;;;;;;;4998577;28;20018;-67
2021/01/06 00:24:11;;;;;;;12.23;9.52;;;;;;;;;;4998875;28;20026;-67
2021/01/06 00:26:37;;;;;;;10.63;8.70;;;;;;;;;;4998693;28;20043;-66
2021/01/06 00:29:07;;;;;;;10.70;8.70;;;;;;;;;;4999756;28;20042;-67
2021/01/06 00:31:40;;;;;;;10.90;8.63;;;;;;;;;;4997930;28;20069;-67
2021/01/06 00:34:06;;;;;;;13.70;9.05;;;;;;;;;;4999707;28;20408;-66
2021/01/06 00:36:31;;;;;;;12.75;9.55;;;;;;;;;;4997522;28;20073;-66
2021/01/06 00:38:57;;;;;;;12.38;9.00;;;;;;;;;;5000963;28;20052;-66
2021/01/06 00:41:29;;;;;;;12.35;9.45;;;;;;;;;;4999933;28;20030;-67
2021/01/06 00:43:56;;;;;;;12.70;9.45;;;;;;;;;;5000268;28;20042;-66
2021/01/06 00:46:22;;;;;;;12.55;9.50;;;;;;;;;;4999461;28;20049;-67
2021/01/06 00:48:48;;;;;;;11.68;8.90;;;;;;;;;;4999345;28;20030;-67
2021/01/06 00:51:14;;;;;;;12.32;9.20;;;;;;;;;;5003925;28;20096;-67
2021/01/06 00:53:39;;;;;;;10.98;9.27;;;;;;;;;;5001475;28;20359;-66
2021/01/06 00:56:05;;;;;;;10.57;8.30;;;;;;;;;;5002650;28;20081;-67
2021/01/06 00:58:30;;;;;;;9.93;7.38;;;;;;;;;;5001751;28;20034;-66
2021/01/06 01:00:55;;;;;;;10.75;8.13;;;;;;;;;;5004528;28;20046;-66
2021/01/06 01:03:21;;;;;;;11.55;8.52;;;;;;;;;;5001025;28;20696;-66
2021/01/06 01:05:46;;;;;;;12.13;8.05;;;;;;;;;;5003460;28;20045;-66
2021/01/06 01:08:12;;;;;;;13.77;8.27;;;;;;;;;;5004540;28;20026;-66
2021/01/06 01:10:46;;;;;;;10.65;8.02;;;;;;;;;;5001349;28;20099;-67
2021/01/06 01:13:18;;;;;;;10.10;7.65;;;;;;;;;;5002729;28;20044;-66
2021/01/06 01:15:52;;;;;;;10.80;7.75;;;;;;;;;;5004561;28;20038;-66
2021/01/06 01:18:26;;;;;;;8.50;7.03;;;;;;;;;;5004029;28;20034;-66
2021/01/06 01:20:54;;;;;;;10.73;7.38;;;;;;;;;;5001189;28;20038;-66
2021/01/06 01:23:21;;;;;;;10.18;8.25;;;;;;;;;;5003181;28;20038;-66
2021/01/06 01:25:48;;;;;;;10.88;7.45;;;;;;;;;;5003148;28;20053;-67
2021/01/06 01:28:18;;;;;;;9.75;8.05;;;;;;;;;;5003179;28;20033;-66
2021/01/06 01:30:44;;;;;;;11.68;7.70;;;;;;;;;;4998836;28;20057;-66
2021/01/06 01:33:11;;;;;;;9.88;7.00;;;;;;;;;;5001995;28;20484;-66
2021/01/06 01:35:37;;;;;;;12.07;8.23;;;;;;;;;;5000835;28;20034;-66
2021/01/06 01:38:04;;;;;;;9.55;7.47;;;;;;;;;;5003519;28;20038;-66
2021/01/06 01:40:30;;;;;;;9.70;6.60;;;;;;;;;;5000534;28;20048;-66
2021/01/06 01:42:59;;;;;;;11.52;7.70;;;;;;;;;;5003602;28;20049;-67
2021/01/06 01:45:27;;;;;;;10.30;8.52;;;;;;;;;;5002421;28;20037;-66
2021/01/06 01:48:00;;;;;;;10.93;7.80;;;;;;;;;;5002753;28;20040;-67
2021/01/06 01:50:26;;;;;;;11.98;8.35;;;;;;;;;;5002673;28;20029;-67
2021/01/06 01:53:00;;;;;;;10.85;8.30;;;;;;;;;;5003089;28;20026;-66
2021/01/06 01:55:25;;;;;;;12.25;7.85;;;;;;;;;;5002090;28;20041;-67
2021/01/06 01:57:57;;;;;;;11.02;7.97;;;;;;;;;;5001675;28;20037;-66
2021/01/06 02:00:24;;;;;;;;;;;;;;;;;;5003050;28;20037;-66
2021/01/06 02:03:29;;;;;;;12.07;8.25;;;;;;;;;;4999988;28;19964;-66
2021/01/06 02:06:06;;;;;;;11.98;7.68;;;;;;;;;;5002634;28;20045;-66
2021/01/06 02:08:36;;;;;;;8.63;7.35;;;;;;;;;;5003324;28;20046;-66
2021/01/06 02:11:16;;;;;;;13.05;8.88;;;;;;;;;;5001096;28;20704;-66
2021/01/06 02:13:50;;;;;;;10.35;8.65;;;;;;;;;;5000038;28;20034;-66
2021/01/06 02:16:33;;;;;;;13.05;9.27;;;;;;;;;;5000821;28;20092;-66
2021/01/06 02:18:59;;;;;;;14.20;9.13;;;;;;;;;;5003405;28;20029;-66
2021/01/06 02:21:27;;;;;;;12.07;9.23;;;;;;;;;;5001703;28;20034;-66
2021/01/06 02:23:56;;;;;;;11.25;9.07;;;;;;;;;;5000828;28;20116;-66
2021/01/06 02:26:22;;;;;;;11.18;8.23;;;;;;;;;;5001827;28;20033;-66
2021/01/06 02:28:48;;;;;;;13.23;9.35;;;;;;;;;;5001871;28;20030;-67
2021/01/06 02:31:18;;;;;;;11.23;8.48;;;;;;;;;;5003202;28;20393;-66
2021/01/06 02:33:45;;;;;;;15.02;9.88;;;;;;;;;;4997825;28;20034;-66
2021/01/06 02:36:11;;;;;;;9.90;8.23;;;;;;;;;;5002704;28;20091;-66
2021/01/06 02:38:36;;;;;;;14.80;8.48;;;;;;;;;;5000069;28;20046;-66
2021/01/06 02:41:02;;;;;;;15.70;9.20;;;;;;;;;;5002938;28;20480;-66
2021/01/06 02:43:28;;;;;;;10.75;8.48;;;;;;;;;;4998022;28;20042;-66
2021/01/06 02:45:55;;;;;;;12.57;9.50;;;;;;;;;;5001778;28;20097;-66
2021/01/06 02:48:21;;;;;;;12.80;8.95;;;;;;;;;;5001628;28;20038;-66
2021/01/06 02:50:51;;;;;;;10.85;8.57;;;;;;;;;;4998387;28;20031;-66
2021/01/06 02:53:31;;;;;;;13.77;9.63;;;;;;;;;;5001735;28;20064;-67
2021/01/06 02:55:58;;;;;;;10.27;9.02;;;;;;;;;;5001450;28;20129;-66
2021/01/06 02:58:26;;;;;;;15.15;8.85;;;;;;;;;;4998458;28;20034;-66
2021/01/06 03:00:52;;;;;;;14.45;9.40;;;;;;;;;;4999766;28;20112;-66
2021/01/06 03:03:23;;;;;;;15.98;9.15;;;;;;;;;;5000249;28;20041;-67
2021/01/06 03:06:00;;;;;;;11.90;8.93;;;;;;;;;;5001239;28;20022;-66
2021/01/06 03:08:25;;;;;;;14.75;9.98;;;;;;;;;;4999056;28;20663;-66
2021/01/06 03:10:50;;;;;;;13.20;8.75;;;;;;;;;;5001510;28;20037;-67
2021/01/06 03:13:16;;;;;;;10.98;8.70;;;;;;;;;;5002431;28;20034;-66
2021/01/06 03:15:41;;;;;;;13.10;9.73;;;;;;;;;;5000076;28;20023;-66
2021/01/06 03:18:07;;;;;;;12.10;8.90;;;;;;;;;;5000723;28;20033;-66
2021/01/06 03:20:35;;;;;;;12.32;8.63;;;;;;;;;;4999693;28;20541;-66
2021/01/06 03:23:16;;;;;;;13.95;9.38;;;;;;;;;;4998996;28;20510;-66
2021/01/06 03:25:42;;;;;;;11.73;8.05;;;;;;;;;;5000037;28;20031;-66
2021/01/06 03:28:10;;;;;;;14.02;9.23;;;;;;;;;;5000333;28;20052;-66
2021/01/06 03:30:36;;;;;;;11.88;8.57;;;;;;;;;;4998212;28;20097;-66
2021/01/06 03:33:22;;;;;;;11.63;8.68;;;;;;;;;;4999507;28;20049;-66
2021/01/06 03:35:55;;;;;;;14.60;8.65;;;;;;;;;;4994428;28;20041;-66
2021/01/06 03:38:34;;;;;;;15.65;10.60;;;;;;;;;;4999443;28;20065;-66
2021/01/06 03:41:01;;;;;;;10.82;7.72;;;;;;;;;;5001772;28;20044;-66
2021/01/06 03:43:29;;;;;;;14.38;8.75;;;;;;;;;;4999701;28;20040;-66
2021/01/06 03:46:03;;;;;;;12.40;8.82;;;;;;;;;;5000346;28;20088;-66
2021/01/06 03:48:37;;;;;;;10.52;8.02;;;;;;;;;;5002927;28;20026;-66
2021/01/06 03:51:19;;;;;;;13.65;7.95;;;;;;;;;;5001230;28;20044;-66
2021/01/06 03:53:48;;;;;;;12.32;8.13;;;;;;;;;;4996536;28;20030;-67
2021/01/06 03:56:25;;;;;;;9.85;7.55;;;;;;;;;;4995539;28;20033;-66
2021/01/06 03:59:15;;;;;;;10.13;7.43;;;;;;;;;;4998877;28;20038;-66
2021/01/06 04:01:52;;;;;;;11.40;8.27;;;;;;;;;;4998646;28;20037;-66
2021/01/06 04:04:32;;;;;;;9.00;7.45;;;;;;;;;;5000060;28;20044;-66
2021/01/06 04:06:59;;;;;;;12.65;9.10;;;;;;;;;;4998554;28;20045;-66
2021/01/06 04:09:34;;;;;;;11.13;8.25;;;;;;;;;;4998981;28;20486;-67
2021/01/06 04:12:15;;;;;;;10.20;7.50;;;;;;;;;;5002268;28;20041;-66
2021/01/06 04:14:41;;;;;;;10.57;7.47;;;;;;;;;;4997924;28;20014;-67
2021/01/06 04:17:19;;;;;;;10.20;7.80;;;;;;;;;;5001388;28;20068;-66
2021/01/06 04:19:51;;;;;;;9.50;7.50;;;;;;;;;;4997896;28;20481;-66
2021/01/06 04:22:35;;;;;;;9.20;6.88;;;;;;;;;;5001118;28;20037;-67
2021/01/06 04:25:00;;;;;;;9.80;7.53;;;;;;;;;;4999429;28;20072;-66
2021/01/06 04:27:26;;;;;;;11.93;8.25;;;;;;;;;;5002883;28;20065;-66
2021/01/06 04:29:51;;;;;;;12.40;7.93;;;;;;;;;;5004467;28;20036;-66
2021/01/06 04:32:16;;;;;;;8.90;7.07;;;;;;;;;;5000025;28;20126;-66
2021/01/06 04:34:42;;;;;;;11.77;7.85;;;;;;;;;;5001971;28;20110;-66
2021/01/06 04:37:07;;;;;;;9.73;7.03;;;;;;;;;;5003897;28;20880;-66
2021/01/06 04:39:32;;;;;;;13.18;7.80;;;;;;;;;;5002904;28;20444;-66
2021/01/06 04:42:03;;;;;;;10.85;7.80;;;;;;;;;;5002580;28;20666;-66
2021/01/06 04:44:45;;;;;;;10.60;8.00;;;;;;;;;;5001867;28;20041;-66
2021/01/06 04:47:37;;;;;;;10.98;7.80;;;;;;;;;;5004771;28;20030;-66
2021/01/06 04:50:19;;;;;;;11.10;7.28;;;;;;;;;;5003717;28;20056;-66
2021/01/06 04:52:51;;;;;;;10.93;7.80;;;;;;;;;;5002639;28;20481;-66
2021/01/06 04:55:45;;;;;;;10.48;7.40;;;;;;;;;;5004531;28;20042;-66
2021/01/06 04:58:30;;;;;;;11.30;8.10;;;;;;;;;;5002632;28;20038;-66
2021/01/06 05:01:19;;;;;;;11.10;7.95;;;;;;;;;;5004150;28;20141;-66
2021/01/06 05:04:09;;;;;;;10.70;8.25;;;;;;;;;;5000743;28;20038;-66
2021/01/06 05:06:51;;;;;;;12.32;8.70;;;;;;;;;;5000056;28;22317;-66
2021/01/06 05:09:21;;;;;;;10.93;8.10;;;;;;;;;;5004563;28;20061;-66
2021/01/06 05:12:07;;;;;;;12.73;8.77;;;;;;;;;;5001764;28;20030;-67
2021/01/06 05:14:50;;;;;;;11.00;8.45;;;;;;;;;;5001844;28;20040;-66
2021/01/06 05:17:15;;;;;;;13.55;8.15;;;;;;;;;;5002085;28;20053;-67
2021/01/06 05:19:45;;;;;;;9.73;7.65;;;;;;;;;;5001338;28;20038;-66
2021/01/06 05:22:12;;;;;;;14.00;8.32;;;;;;;;;;5004128;28;20029;-66
2021/01/06 05:24:40;;;;;;;12.75;8.25;;;;;;;;;;4999335;28;20075;-66
2021/01/06 05:27:12;;;;;;;10.32;7.13;;;;;;;;;;5004252;28;20045;-66
2021/01/06 05:29:37;;;;;;;11.73;7.75;;;;;;;;;;4999791;28;20034;-66
2021/01/06 05:32:03;;;;;;;12.55;7.63;;;;;;;;;;5000922;28;20038;-66
2021/01/06 05:34:29;;;;;;;13.55;8.63;;;;;;;;;;5017822;28;20050;-66
2021/01/06 05:36:54;;;;;;;14.43;9.55;;;;;;;;;;5002347;28;20046;-66
2021/01/06 05:39:28;;;;;;;12.27;8.55;;;;;;;;;;5003133;28;20114;-66
2021/01/06 05:42:08;;;;;;;10.45;7.95;;;;;;;;;;5001151;28;20034;-66
2021/01/06 05:44:34;;;;;;;11.60;8.02;;;;;;;;;;5001265;28;20042;-66
2021/01/06 05:46:59;;;;;;;12.48;8.25;;;;;;;;;;5004242;28;20029;-66
2021/01/06 05:49:30;;;;;;;14.80;8.35;;;;;;;;;;4999890;28;20496;-66
2021/01/06 05:51:57;;;;;;;;;;;;;;;;;;5003093;28;20469;-67
2021/01/06 05:54:40;;;;;;;14.30;7.65;;;;;;;;;;5002932;28;19940;-66
2021/01/06 05:57:33;;;;;;;12.50;8.35;;;;;;;;;;4996885;28;20108;-66
2021/01/06 06:00:04;;;;;;;14.07;8.40;;;;;;;;;;5000215;28;20041;-66
2021/01/06 06:02:41;;;;;;;11.18;7.82;;;;;;;;;;4998076;28;20552;-66
2021/01/06 06:05:19;;;;;;;14.27;8.38;;;;;;;;;;5001507;28;20405;-67
2021/01/06 06:08:22;;;;;;;12.20;8.60;;;;;;;;;;4996880;28;20061;-67
2021/01/06 06:10:47;;;;;;;9.27;7.57;;;;;;;;;;4998802;28;20106;-66
2021/01/06 06:13:34;;;;;;;11.60;7.60;;;;;;;;;;5003024;28;20133;-67
2021/01/06 06:16:21;;;;;;;11.55;8.52;;;;;;;;;;5001980;28;20045;-66
2021/01/06 06:19:20;;;;;;;10.43;7.78;;;;;;;;;;4999240;28;20433;-66
2021/01/06 06:22:08;;;;;;;10.93;8.13;;;;;;;;;;4999855;28;20628;-67
2021/01/06 06:24:48;;;;;;;15.05;8.77;;;;;;;;;;4999739;28;20042;-67
2021/01/06 06:27:31;;;;;;;11.80;8.20;;;;;;;;;;4995280;28;20076;-67
2021/01/06 06:30:13;;;;;;;15.27;8.23;;;;;;;;;;4998852;28;20041;-67
2021/01/06 06:32:41;;;;;;;13.80;9.38;;;;;;;;;;4998882;28;20041;-67
2021/01/06 06:35:33;;;;;;;11.95;8.27;;;;;;;;;;5002618;28;21104;-67
2021/01/06 06:38:00;;;;;;;;;;;;;;;;;;5000999;28;20042;-67
2021/01/06 06:40:26;;;;;;;11.80;8.30;;;;;;;;;;5000057;28;20348;-67
2021/01/06 06:42:59;;;;;;;11.90;9.00;;;;;;;;;;4997099;28;20034;-67
2021/01/06 06:45:55;;;;;;;13.13;8.43;;;;;;;;;;4996632;28;20121;-67
2021/01/06 06:48:53;;;;;;;13.18;8.65;;;;;;;;;;4996087;28;20043;-67
2021/01/06 06:51:43;;;;;;;12.38;8.88;;;;;;;;;;5002345;28;20038;-67
2021/01/06 06:54:22;;;;;;;13.98;9.30;;;;;;;;;;4996493;28;20095;-67
2021/01/06 06:57:01;;;;;;;13.63;8.32;;;;;;;;;;4999225;28;20358;-67
2021/01/06 06:59:45;;;;;;;10.50;8.45;;;;;;;;;;4998890;28;20037;-67
2021/01/06 07:02:10;;;;;;;12.95;8.77;;;;;;;;;;5000876;28;20038;-68
2021/01/06 07:04:47;;;;;;;13.23;8.63;;;;;;;;;;4998843;28;20109;-67
2021/01/06 07:07:41;;;;;;;12.07;7.55;;;;;;;;;;4998817;28;20124;-67
2021/01/06 07:10:18;;;;;;;11.70;9.18;;;;;;;;;;5000692;28;20057;-68
2021/01/06 07:12:43;;;;;;;11.48;9.30;;;;;;;;;;4999544;28;20030;-67
2021/01/06 07:15:34;;;;;;;10.98;8.75;;;;;;;;;;5001056;28;20412;-68
2021/01/06 07:18:19;;;;;;;13.95;8.98;;;;;;;;;;4991664;28;20050;-68
2021/01/06 07:20:45;;;;;;;12.20;8.88;;;;;;;;;;5000211;28;20462;-66
2021/01/06 07:23:22;;;;;;;12.57;9.13;;;;;;;;;;5001532;28;20034;-66
2021/01/06 07:26:01;;;;;;;16.08;9.50;;;;;;;;;;4998668;28;20045;-66
2021/01/06 07:28:27;;;;;;;12.35;9.35;;;;;;;;;;5001244;28;20512;-66
2021/01/06 07:30:53;;;;;;;12.82;8.25;;;;;;;;;;5002362;28;20510;-66
2021/01/06 07:33:38;;;;;;;18.45;10.85;;;;;;;;;;5001597;28;20026;-66
2021/01/06 07:36:24;;;;;;;13.80;10.32;;;;;;;;;;5001272;28;20041;-66
2021/01/06 07:38:51;;;;;;;14.77;11.60;;;;;;;;;;5001430;28;20026;-66
2021/01/06 07:41:19;;;;;;;16.02;10.50;;;;;;;;;;5001164;28;20041;-67
2021/01/06 07:44:03;;;;;;;15.32;11.23;;;;;;;;;;4996416;28;20034;-67
2021/01/06 07:46:44;;;;;;;19.95;12.68;;;;;;;;;;5000735;28;20480;-67
2021/01/06 07:49:31;;;;;;;16.30;12.30;;;;;;;;;;5001929;28;20049;-67
2021/01/06 07:52:18;;;;;;;16.15;11.75;;;;;;;;;;4998707;28;20046;-66
2021/01/06 07:55:08;;;;;;;15.05;11.00;;;;;;;;;;4997795;28;20026;-67
2021/01/06 07:57:47;;;;;;;18.05;11.68;;;;;;;;;;4997945;28;20101;-68
2021/01/06 08:00:15;;;;;;;14.57;11.27;;;;;;;;;;4999928;28;20045;-67
2021/01/06 08:02:54;;;;;;;15.35;10.57;;;;;;;;;;4996089;28;20172;-67
2021/01/06 08:05:29;;;;;;;16.17;12.32;;;;;;;;;;5000595;28;20100;-67
2021/01/06 08:08:02;;;;;;;13.20;9.90;;;;;;;;;;5001556;28;20104;-67
2021/01/06 08:10:28;;;;;;;12.43;9.57;;;;;;;;;;4998104;28;20046;-67
2021/01/06 08:13:10;;;;;;;14.40;10.27;;;;;;;;;;5001231;28;20473;-67
2021/01/06 08:15:35;;;;;;;12.23;8.93;;;;;;;;;;4999524;28;20121;-67
2021/01/06 08:18:03;;;;;;;13.68;9.00;;;;;;;;;;4999271;28;20121;-67
2021/01/06 08:20:34;;;;;;;12.70;7.88;;;;;;;;;;4999763;28;20046;-68
2021/01/06 08:23:24;;;;;;;12.95;9.10;;;;;;;;;;5001704;28;20409;-68
2021/01/06 08:26:19;;;;;;;10.90;8.55;;;;;;;;;;4997375;28;20038;-67
2021/01/06 08:28:44;;;;;;;19.83;9.77;;;;;;;;;;4994869;28;20418;-68
2021/01/06 08:31:19;;;;;;;15.32;9.45;;;;;;;;;;5001103;28;20038;-67
2021/01/06 08:33:55;;;;;;;15.38;10.60;;;;;;;;;;4997714;28;20042;-67
2021/01/06 08:36:36;;;;;;;14.35;9.98;;;;;;;;;;4999790;28;20073;-68
2021/01/06 08:39:14;;;;;;;15.27;10.45;;;;;;;;;;4997949;28;20026;-67
2021/01/06 08:41:40;;;;;;;12.23;8.88;;;;;;;;;;4996903;28;20141;-68
2021/01/06 08:44:06;;;;;;;15.43;8.85;;;;;;;;;;4996247;28;20042;-67
2021/01/06 08:46:34;;;;;;;11.45;7.38;;;;;;;;;;4998508;28;20083;-67
2021/01/06 08:49:30;;;;;;;10.25;7.50;;;;;;;;;;5000458;28;20034;-67
2021/01/06 08:52:12;;;;;;;9.60;7.10;;;;;;;;;;4997965;28;20492;-67
2021/01/06 08:54:37;;;;;;;10.75;7.30;;;;;;;;;;4998568;28;20030;-67
2021/01/06 08:57:17;;;;;;;13.25;7.82;;;;;;;;;;5000148;28;20034;-66
2021/01/06 08:59:43;;;;;;;11.77;7.43;;;;;;;;;;4996170;28;20042;-67
2021/01/06 09:02:17;;;;;;;9.27;6.90;;;;;;;;;;4998812;28;20034;-67
2021/01/06 09:04:44;;;;;;;10.18;7.00;;;;;;;;;;4998755;28;20454;-67
2021/01/06 09:07:19;;;;;;;10.38;6.72;;;;;;;;;;4999758;28;20536;-67
2021/01/06 09:10:10;;;;;;;9.10;6.68;;;;;;;;;;4996920;28;20660;-67
2021/01/06 09:12:38;;;;;;;8.88;6.55;;;;;;;;;;5000643;28;20030;-68
2021/01/06 09:15:06;;;;;;;7.97;6.13;;;;;;;;;;4999189;28;20469;-67
2021/01/06 09:17:53;;;;;;;9.27;5.95;;;;;;;;;;5003393;28;20064;-67
2021/01/06 09:20:25;;;;;;;7.65;5.47;;;;;;;;;;5002084;28;20461;-67
2021/01/06 09:22:51;;;;;;;9.35;5.95;;;;;;;;;;5001265;28;20378;-67
2021/01/06 09:25:22;;;;;;;8.43;6.10;;;;;;;;;;5004507;28;20049;-67
2021/01/06 09:27:49;;;;;;;11.90;5.90;;;;;;;;;;5000564;28;20062;-67
2021/01/06 09:30:18;;;;;;;10.90;6.45;;;;;;;;;;5003995;28;20061;-68
2021/01/06 09:32:46;;;;;;;11.18;6.07;;;;;;;;;;4999637;28;20042;-67
2021/01/06 09:35:18;;;;;;;9.20;6.72;;;;;;;;;;4998568;28;20030;-67
2021/01/06 09:37:55;;;;;;;9.98;6.75;;;;;;;;;;4990195;28;20115;-67
2021/01/06 09:40:23;;;;;;;9.73;7.05;;;;;;;;;;5003956;28;20068;-67
2021/01/06 09:42:57;;;;;;;7.43;5.35;;;;;;;;;;5000691;28;20526;-67
2021/01/06 09:45:25;;;;;;;8.63;6.78;;;;;;;;;;5002017;28;20453;-68
2021/01/06 09:48:04;;;;;;;10.60;6.82;;;;;;;;;;5003533;28;20037;-67
2021/01/06 09:50:44;;;;;;;9.68;5.50;;;;;;;;;;5002697;28;20066;-67
2021/01/06 09:53:15;;;;;;;9.50;6.38;;;;;;;;;;5002231;28;20037;-67
2021/01/06 09:55:47;;;;;;;7.00;5.05;;;;;;;;;;5001052;28;20112;-67
2021/01/06 09:58:37;;;;;;;6.03;4.80;;;;;;;;;;5003575;28;20038;-67
2021/01/06 10:01:28;;;;;;;9.47;4.87;;;;;;;;;;5001317;28;20421;-68
2021/01/06 10:03:55;;;;;;;8.27;6.20;;;;;;;;;;4999327;28;20405;-67
2021/01/06 10:06:36;;;;;;;8.20;5.22;;;;;;;;;;5002911;28;20120;-66
2021/01/06 10:09:13;;;;;;;7.05;5.22;;;;;;;;;;4999737;28;20045;-67
2021/01/06 10:11:59;;;;;;;7.10;5.18;;;;;;;;;;4999321;28;20038;-67
2021/01/06 10:15:02;;;;;;;6.80;4.95;;;;;;;;;;5004287;28;20040;-67
2021/01/06 10:17:34;;;;;;;7.40;4.78;;;;;;;;;;5000671;28;20063;-66
2021/01/06 10:20:10;;;;;;;7.40;4.70;;;;;;;;;;5004229;28;20042;-67
2021/01/06 10:22:51;;;;;;;7.90;4.03;;;;;;;;;;4994599;28;20380;-67
2021/01/06 10:25:16;;;;;;;;;;;;;;;;;;5003986;28;20038;-67
2021/01/06 10:27:55;;;;;;;8.98;4.82;;;;;;;;;;5000714;28;19964;-67
2021/01/06 10:30:23;;;;;;;8.27;5.97;;;;;;;;;;4999904;28;21013;-67
2021/01/06 10:33:05;;;;;;;8.93;6.00;;;;;;;;;;4997480;28;20034;-67
2021/01/06 10:35:40;;;;;;;8.70;6.15;;;;;;;;;;4997351;28;20029;-67
2021/01/06 10:38:13;;;;;;;9.55;5.97;;;;;;;;;;5002085;28;20104;-67
2021/01/06 10:40:42;;;;;;;9.98;5.75;;;;;;;;;;5000247;28;20062;-67
2021/01/06 10:43:35;;;;;;;6.90;5.15;;;;;;;;;;5001048;28;20060;-67
2021/01/06 10:46:01;;;;;;;9.57;4.70;;;;;;;;;;5001257;28;20092;-68
2021/01/06 10:48:45;;;;;;;8.10;5.30;;;;;;;;;;5000786;28;20056;-67
2021/01/06 10:51:49;;;;;;;7.38;5.47;;;;;;;;;;5000628;28;20029;-67
2021/01/06 10:54:19;;;;;;;9.65;6.35;;;;;;;;;;5002413;28;20030;-67
2021/01/06 10:56:45;;;;;;;6.70;5.07;;;;;;;;;;4997396;28;20038;-67
2021/01/06 10:59:14;;;;;;;9.63;5.15;;;;;;;;;;4997750;28;20095;-67
2021/01/06 11:02:22;;;;;;;7.07;5.03;;;;;;;;;;4998237;28;20418;-67
2021/01/06 11:05:08;;;;;;;6.60;4.97;;;;;;;;;;4999720;28;20030;-68
2021/01/06 11:08:09;;;;;;;7.65;5.03;;;;;;;;;;4997916;28;20072;-68
2021/01/06 11:10:43;;;;;;;6.20;4.50;;;;;;;;;;4999821;28;20073;-67
2021/01/06 11:13:17;;;;;;;9.02;5.28;;;;;;;;;;4998958;28;20099;-68
2021/01/06 11:15:58;;;;;;;6.45;4.95;;;;;;;;;;4998788;28;20121;-68
2021/01/06 11:18:23;;;;;;;7.60;4.78;;;;;;;;;;5000840;28;20037;-68
2021/01/06 11:21:14;;;;;;;7.45;4.72;;;;;;;;;;4998799;28;20054;-68
2021/01/06 11:23:54;;;;;;;6.63;4.78;;;;;;;;;;5000828;28;20038;-68
2021/01/06 11:26:31;;;;;;;6.55;5.00;;;;;;;;;;5000906;28;20045;-68
2021/01/06 11:29:11;;;;;;;11.90;5.75;;;;;;;;;;5002780;28;20120;-68
2021/01/06 11:32:01;;;;;;;9.73;6.82;;;;;;;;;;4999665;28;20042;-68
2021/01/06 11:34:35;;;;;;;8.10;6.43;;;;;;;;;;4998698;28;20050;-68
2021/01/06 11:37:03;;;;;;;7.43;5.63;;;;;;;;;;4995163;28;20042;-68
2021/01/06 11:39:38;;;;;;;7.28;5.38;;;;;;;;;;4992247;28;20045;-68
2021/01/06 11:42:17;;;;;;;11.25;7.30;;;;;;;;;;4997784;28;20183;-68
2021/01/06 11:45:07;;;;;;;10.90;7.13;;;;;;;;;;4998843;28;20031;-71
2021/01/06 11:47:55;;;;;;;11.32;7.20;;;;;;;;;;4997413;28;20717;-68
2021/01/06 11:50:40;;;;;;;7.72;5.47;;;;;;;;;;4998920;28;20038;-67
2021/01/06 11:53:15;;;;;;;6.65;4.55;;;;;;;;;;4997802;28;20045;-67
2021/01/06 11:56:02;;;;;;;7.40;3.78;;;;;;;;;;4996057;28;20092;-66
2021/01/06 11:58:32;;;;;;;6.50;4.45;;;;;;;;;;4998666;28;20068;-66
2021/01/06 12:01:17;;;;;;;6.18;4.10;;;;;;;;;;4998687;28;20057;-66
2021/01/06 12:04:01;;;;;;;6.47;4.30;;;;;;;;;;4984469;28;20124;-66
2021/01/06 12:06:53;;;;;;;7.13;4.03;;;;;;;;;;4995451;28;20041;-66
2021/01/06 12:09:25;;;;;;;5.50;3.92;;;;;;;;;;5011705;28;20073;-66
2021/01/06 12:12:28;;;;;;;5.90;4.00;;;;;;;;;;4993139;28;20073;-66
2021/01/06 12:15:02;;;;;;;5.10;3.47;;;;;;;;;;4997390;28;20030;-66
2021/01/06 12:17:41;;;;;;;4.93;3.38;;;;;;;;;;4995471;28;20038;-67
2021/01/06 12:20:20;;;;;;;5.82;3.78;;;;;;;;;;4998964;28;20038;-67
2021/01/06 12:23:31;;;;;;;5.43;3.92;;;;;;;;;;4995686;28;20286;-67
2021/01/06 12:25:58;;;;;;;7.80;3.78;;;;;;;;;;4995411;28;20500;-67
2021/01/06 12:28:48;;;;;;;8.27;3.97;;;;;;;;;;5000495;28;20171;-67
2021/01/06 12:31:20;;;;;;;7.70;4.83;;;;;;;;;;4997478;28;20121;-67
2021/01/06 12:33:48;;;;;;;;;;;;;;;;;;5000693;28;20268;-67
2021/01/06 12:36:20;;;;;;;6.15;4.88;;;;;;;;;;5001470;28;19995;-67
2021/01/06 12:38:46;;;;;;;6.85;4.70;;;;;;;;;;5003605;28;20540;-69
2021/01/06 12:41:21;;;;;;;7.07;4.75;;;;;;;;;;5000289;28;20045;-67
2021/01/06 12:43:59;;;;;;;7.03;4.85;;;;;;;;;;4996405;28;20096;-67
2021/01/06 12:46:57;;;;;;;7.82;5.05;;;;;;;;;;4999495;28;20638;-66
2021/01/06 12:49:36;;;;;;;6.88;3.88;;;;;;;;;;4999536;28;20589;-66
2021/01/06 12:52:35;;;;;;;5.25;3.70;;;;;;;;;;5001141;28;20277;-66
2021/01/06 12:55:07;;;;;;;6.57;4.90;;;;;;;;;;5003239;28;20447;-66
2021/01/06 12:57:43;;;;;;;6.60;4.70;;;;;;;;;;4998402;28;20037;-66
2021/01/06 13:00:32;;;;;;;5.88;3.90;;;;;;;;;;5003184;28;20037;-66
2021/01/06 13:03:29;;;;;;;6.03;4.20;;;;;;;;;;4999777;28;20069;-67
2021/01/06 13:06:10;;;;;;;6.47;4.22;;;;;;;;;;4997925;28;20050;-68
2021/01/06 13:08:49;;;;;;;5.40;4.03;;;;;;;;;;5001364;28;20053;-67
2021/01/06 13:11:41;;;;;;;6.05;3.83;;;;;;;;;;5000791;28;20777;-68
2021/01/06 13:14:36;;;;;;;9.52;4.35;;;;;;;;;;4998371;28;20101;-68
2021/01/06 13:17:20;;;;;;;5.95;3.60;;;;;;;;;;4997723;28;20027;-67
2021/01/06 13:20:00;;;;;;;4.88;3.22;;;;;;;;;;4995584;28;20075;-67
2021/01/06 13:22:52;;;;;;;5.03;3.42;;;;;;;;;;4999839;28;20053;-67
2021/01/06 13:25:23;;;;;;;4.60;3.13;;;;;;;;;;5001126;28;20612;-67
2021/01/06 13:27:51;;;;;;;5.85;3.15;;;;;;;;;;4997463;28;20034;-67
2021/01/06 13:30:34;;;;;;;5.28;3.58;;;;;;;;;;5004424;28;20050;-67
2021/01/06 13:33:12;;;;;;;5.40;3.45;;;;;;;;;;5004163;28;20469;-67
2021/01/06 13:35:46;;;;;;;4.93;3.28;;;;;;;;;;4999838;28;20038;-67
2021/01/06 13:38:31;;;;;;;6.22;3.63;;;;;;;;;;5002371;28;20065;-66
2021/01/06 13:41:01;;;;;;;6.30;3.45;;;;;;;;;;5002594;28;20117;-66
2021/01/06 13:43:32;;;;;;;5.53;3.75;;;;;;;;;;5001546;28;20064;-66
2021/01/06 13:46:06;;;;;;;;;;;;;;;;;;5002530;28;20048;-66
2021/01/06 13:48:36;;;;;;;4.47;3.10;;;;;;;;;;5001599;28;19941;-66
2021/01/06 13:51:12;;;;;;;5.22;3.55;;;;;;;;;;5001280;28;20041;-66
2021/01/06 13:53:49;;;;;;;5.30;3.60;;;;;;;;;;4996752;28;20041;-66
2021/01/06 13:56:28;;;;;;;6.72;4.80;;;;;;;;;;4996800;28;20030;-65
2021/01/06 13:59:11;;;;;;;8.20;4.65;;;;;;;;;;4998485;28;20041;-67
2021/01/06 14:01:56;;;;;;;9.18;5.40;;;;;;;;;;4994281;28;20602;-67
2021/01/06 14:04:23;;;;;;;9.20;5.72;;;;;;;;;;4999512;28;20045;-66
2021/01/06 14:07:09;;;;;;;8.65;5.32;;;;;;;;;;4998981;28;20041;-67
2021/01/06 14:09:53;;;;;;;8.60;4.90;;;;;;;;;;4994391;28;20044;-67
2021/01/06 14:13:02;;;;;;;8.13;4.45;;;;;;;;;;5000668;28;20423;-67
2021/01/06 14:15:30;;;;;;;6.90;4.60;;;;;;;;;;4998185;28;20088;-68
2021/01/06 14:18:17;;;;;;;5.90;4.18;;;;;;;;;;5002070;28;20568;-67
2021/01/06 14:21:45;;;;;;;6.60;4.80;;;;;;;;;;4990178;28;20085;-68
2021/01/06 14:28:59;;;;;;;6.97;3.60;;;;;;;;;;4995068;28;20441;-67
2021/01/06 14:31:50;;;;;;;8.35;3.97;;;;;;;;;;4997167;28;20026;-65
2021/01/06 14:34:19;;;;;;;7.55;4.30;;;;;;;;;;5002501;28;20111;-66
2021/01/06 14:36:56;;;;;;;6.47;4.18;;;;;;;;;;4996711;28;20065;-66
2021/01/06 14:39:27;;;;;;;5.40;3.10;;;;;;;;;;5000907;28;20119;-67
2021/01/06 14:42:22;;;;;;;9.30;4.13;;;;;;;;;;5001118;28;20458;-65
2021/01/06 14:44:58;;;;;;;5.28;3.15;;;;;;;;;;4997506;28;20446;-66
2021/01/06 14:47:35;;;;;;;8.05;3.38;;;;;;;;;;5001568;28;20088;-66
2021/01/06 14:50:19;;;;;;;5.63;3.28;;;;;;;;;;5000155;28;20034;-67
2021/01/06 14:52:58;;;;;;;5.15;3.03;;;;;;;;;;5001370;28;20034;-66
2021/01/06 14:55:28;;;;;;;6.00;2.90;;;;;;;;;;4999845;28;20466;-66
2021/01/06 14:57:56;;;;;;;4.57;2.53;;;;;;;;;;5002080;28;20668;-66
2021/01/06 15:00:42;;;;;;;5.03;3.25;;;;;;;;;;5001953;28;20042;-65
2021/01/06 15:03:13;;;;;;;5.53;3.38;;;;;;;;;;4999958;28;20059;-66
2021/01/06 15:05:42;;;;;;;;;;;;;;;;;;4999395;28;20064;-65
2021/01/06 15:08:13;;;;;;;5.25;3.50;;;;;;;;;;5001859;28;19936;-66
2021/01/06 15:10:39;;;;;;;10.55;4.43;;;;;;;;;;4997870;28;20034;-66
2021/01/06 15:13:12;;;;;;;9.30;5.57;;;;;;;;;;4995100;28;20060;-67
2021/01/06 15:15:47;;;;;;;11.43;6.47;;;;;;;;;;5000177;28;20030;-66
2021/01/06 15:18:19;;;;;;;6.68;4.38;;;;;;;;;;5002209;28;20108;-65
2021/01/06 15:20:49;;;;;;;13.20;7.40;;;;;;;;;;4997686;28;20117;-66
2021/01/06 15:23:25;;;;;;;11.65;7.95;;;;;;;;;;5002790;28;20125;-67
2021/01/06 15:25:59;;;;;;;10.38;8.10;;;;;;;;;;5000599;28;20089;-67
2021/01/06 15:28:47;;;;;;;12.82;8.60;;;;;;;;;;4998918;28;20037;-67
2021/01/06 15:31:19;;;;;;;10.80;7.13;;;;;;;;;;5002001;28;20033;-67